Date,TemperatureHighF,TemperatureAvgF,TemperatureLowF,DewpointHighF,DewpointAvgF,DewpointLowF,HumidityHigh,HumidityAvg,HumidityLow,PressureMaxIn,PressureMinIn,WindSpeedMaxMPH,WindSpeedAvgMPH,GustSpeedMaxMPH,PrecipitationSumIn
2013-4-1,41,36,24,40,24,3,98,67,25,0.00,40.00,12,8,23,0.11
2013-4-2,31,25,18,15,10,6,76,52,37,0.00,40.00,10,6,23,0.01
2013-4-3,34,26,20,18,10,2,79,53,30,0.00,40.00,9,6,21,0.00
2013-4-4,49,32,14,12,6,-1,75,41,13,0.00,40.00,11,6,17,0.00
2013-4-5,51,40,28,22,14,6,59,36,23,0.00,40.00,9,6,24,0.00
2013-4-6,50,36,21,19,12,3,79,44,15,0.00,40.00,11,6,18,0.00
2013-4-7,67,52,38,42,28,13,66,40,31,0.00,40.00,14,10,31,0.00
2013-4-8,68,57,40,44,39,36,94,56,34,0.00,40.00,13,6,22,0.00
2013-4-9,74,63,51,50,46,40,90,56,34,0.00,40.00,11,7,22,0.02
2013-4-10,74,65,56,60,54,49,100,71,52,0.00,40.00,11,8,37,1.49
2013-4-11,57,49,38,57,49,38,100,100,95,0.00,40.00,12,6,22,1.40
2013-4-12,59,46,38,57,44,29,100,92,69,0.00,40.00,14,10,24,0.59
2013-4-13,42,38,35,32,30,28,87,74,60,0.00,40.00,10,7,19,0.03
2013-4-14,52,41,29,29,27,23,82,59,39,0.00,40.00,9,5,21,0.00
2013-4-15,63,52,44,46,37,28,73,57,46,0.00,40.00,14,10,26,0.00
2013-4-16,70,58,51,56,51,45,99,82,55,0.00,40.00,12,8,24,0.06
2013-4-17,70,56,45,53,39,30,100,60,26,0.00,40.00,9,5,15,0.07
2013-4-18,60,56,53,58,48,30,98,75,40,0.00,40.00,13,10,24,0.00
2013-4-19,67,56,40,60,50,31,95,81,69,0.00,40.00,16,10,26,0.27
2013-4-20,41,35,27,32,24,16,85,64,49,0.00,40.00,13,8,28,0.11
2013-4-21,49,35,20,21,16,12,87,50,25,0.00,40.00,8,4,21,0.00
2013-4-22,54,43,33,25,20,16,59,42,24,0.00,40.00,13,10,23,0.00
2013-4-23,63,47,31,34,29,25,83,54,24,0.00,40.00,11,8,18,0.00
2013-4-24,63,47,33,53,40,32,96,78,56,0.00,40.00,14,8,36,0.38
2013-4-25,54,42,32,35,27,19,97,62,28,0.00,40.00,10,6,21,0.05
2013-4-26,57,44,31,38,24,13,100,56,18,0.00,40.00,7,3,16,0.02
2013-4-27,69,54,38,29,23,17,46,31,20,0.00,40.00,7,4,18,0.00
2013-4-28,58,50,44,47,37,-100,100,69,38,0.00,40.00,13,9,25,0.35
2013-4-29,53,47,44,51,46,42,100,95,88,0.00,40.00,10,9,17,0.35
2013-4-30,57,54,50,51,50,49,100,87,80,0.00,40.00,11,9,20,0.02